sensor_id;sensor_type;location;lat;lon;timestamp;temperature;humidity
32296;DHT22;18781;51.550;5.418;2022-10-17T00:00:48;17.30;72.90
32296;DHT22;18781;51.550;5.418;2022-10-17T00:03:14;17.30;72.80
32296;DHT22;18781;51.550;5.418;2022-10-17T00:05:41;17.30;72.90
32296;DHT22;18781;51.550;5.418;2022-10-17T00:08:08;17.30;73.00
32296;DHT22;18781;51.550;5.418;2022-10-17T00:10:34;17.30;73.00
32296;DHT22;18781;51.550;5.418;2022-10-17T00:12:59;17.30;73.10
32296;DHT22;18781;51.550;5.418;2022-10-17T00:15:25;17.30;73.40
32296;DHT22;18781;51.550;5.418;2022-10-17T00:17:51;17.30;73.50
32296;DHT22;18781;51.550;5.418;2022-10-17T00:20:16;17.30;73.50
32296;DHT22;18781;51.550;5.418;2022-10-17T00:22:42;17.30;73.60
32296;DHT22;18781;51.550;5.418;2022-10-17T00:25:08;17.30;73.60
32296;DHT22;18781;51.550;5.418;2022-10-17T00:27:35;17.30;73.70
32296;DHT22;18781;51.550;5.418;2022-10-17T00:30:01;17.30;73.70
32296;DHT22;18781;51.550;5.418;2022-10-17T00:32:26;17.30;73.80
32296;DHT22;18781;51.550;5.418;2022-10-17T00:34:52;17.30;73.90
32296;DHT22;18781;51.550;5.418;2022-10-17T00:37:17;17.30;74.00
32296;DHT22;18781;51.550;5.418;2022-10-17T00:39:43;17.30;74.00
32296;DHT22;18781;51.550;5.418;2022-10-17T00:42:11;17.40;74.00
32296;DHT22;18781;51.550;5.418;2022-10-17T00:47:10;17.40;74.30
32296;DHT22;18781;51.550;5.418;2022-10-17T00:49:38;17.40;74.40
32296;DHT22;18781;51.550;5.418;2022-10-17T00:52:08;17.40;74.20
32296;DHT22;18781;51.550;5.418;2022-10-17T00:54:43;17.40;74.60
32296;DHT22;18781;51.550;5.418;2022-10-17T00:57:10;17.40;74.80
32296;DHT22;18781;51.550;5.418;2022-10-17T00:59:37;17.40;74.40
32296;DHT22;18781;51.550;5.418;2022-10-17T01:02:16;17.40;74.50
32296;DHT22;18781;51.550;5.418;2022-10-17T01:04:45;17.40;75.00
32296;DHT22;18781;51.550;5.418;2022-10-17T01:07:11;17.40;74.60
32296;DHT22;18781;51.550;5.418;2022-10-17T01:09:38;17.50;74.60
32296;DHT22;18781;51.550;5.418;2022-10-17T01:12:25;17.50;74.60
32296;DHT22;18781;51.550;5.418;2022-10-17T01:15:17;17.50;75.30
32296;DHT22;18781;51.550;5.418;2022-10-17T01:18:10;17.50;75.20
32296;DHT22;18781;51.550;5.418;2022-10-17T01:27:10;17.50;75.30
32296;DHT22;18781;51.550;5.418;2022-10-17T01:30:08;17.50;75.40
32296;DHT22;18781;51.550;5.418;2022-10-17T01:38:21;17.50;74.90
32296;DHT22;18781;51.550;5.418;2022-10-17T01:40:28;17.50;75.40
32296;DHT22;18781;51.550;5.418;2022-10-17T01:45:46;17.60;75.70
32296;DHT22;18781;51.550;5.418;2022-10-17T01:48:17;17.60;75.90
32296;DHT22;18781;51.550;5.418;2022-10-17T01:50:49;17.60;75.50
32296;DHT22;18781;51.550;5.418;2022-10-17T01:53:27;17.60;75.50
32296;DHT22;18781;51.550;5.418;2022-10-17T01:55:55;17.60;75.80
32296;DHT22;18781;51.550;5.418;2022-10-17T01:58:30;17.70;75.70
32296;DHT22;18781;51.550;5.418;2022-10-17T02:01:00;17.70;75.60
32296;DHT22;18781;51.550;5.418;2022-10-17T02:03:27;17.70;75.40
32296;DHT22;18781;51.550;5.418;2022-10-17T02:05:54;17.70;75.40
32296;DHT22;18781;51.550;5.418;2022-10-17T02:08:27;17.70;75.40
32296;DHT22;18781;51.550;5.418;2022-10-17T02:11:01;17.70;76.00
32296;DHT22;18781;51.550;5.418;2022-10-17T02:14:12;17.70;75.80
32296;DHT22;18781;51.550;5.418;2022-10-17T02:24:58;17.70;75.50
32296;DHT22;18781;51.550;5.418;2022-10-17T02:30:15;17.80;75.90
32296;DHT22;18781;51.550;5.418;2022-10-17T02:35:39;17.80;75.90
32296;DHT22;18781;51.550;5.418;2022-10-17T02:38:07;17.80;75.30
32296;DHT22;18781;51.550;5.418;2022-10-17T02:40:36;17.80;75.30
32296;DHT22;18781;51.550;5.418;2022-10-17T02:43:03;17.80;75.30
32296;DHT22;18781;51.550;5.418;2022-10-17T02:45:29;17.70;75.40
32296;DHT22;18781;51.550;5.418;2022-10-17T02:48:04;17.80;75.80
32296;DHT22;18781;51.550;5.418;2022-10-17T02:53:14;17.80;76.40
32296;DHT22;18781;51.550;5.418;2022-10-17T02:55:47;17.80;76.40
32296;DHT22;18781;51.550;5.418;2022-10-17T02:58:19;17.80;76.50
32296;DHT22;18781;51.550;5.418;2022-10-17T03:00:46;17.80;76.60
32296;DHT22;18781;51.550;5.418;2022-10-17T03:03:24;17.90;76.50
32296;DHT22;18781;51.550;5.418;2022-10-17T03:05:51;17.90;77.10
32296;DHT22;18781;51.550;5.418;2022-10-17T03:08:17;18.00;76.70
32296;DHT22;18781;51.550;5.418;2022-10-17T03:10:43;18.00;76.60
32296;DHT22;18781;51.550;5.418;2022-10-17T03:13:08;18.00;76.80
32296;DHT22;18781;51.550;5.418;2022-10-17T03:15:34;18.00;76.80
32296;DHT22;18781;51.550;5.418;2022-10-17T03:18:00;18.00;76.80
32296;DHT22;18781;51.550;5.418;2022-10-17T03:20:25;18.10;76.70
32296;DHT22;18781;51.550;5.418;2022-10-17T03:22:51;18.10;76.70
32296;DHT22;18781;51.550;5.418;2022-10-17T03:25:16;18.10;76.70
32296;DHT22;18781;51.550;5.418;2022-10-17T03:27:42;18.20;76.70
32296;DHT22;18781;51.550;5.418;2022-10-17T03:30:08;18.20;76.70
32296;DHT22;18781;51.550;5.418;2022-10-17T03:32:34;18.20;76.70
32296;DHT22;18781;51.550;5.418;2022-10-17T03:35:00;18.20;76.60
32296;DHT22;18781;51.550;5.418;2022-10-17T03:37:25;18.20;76.50
32296;DHT22;18781;51.550;5.418;2022-10-17T03:39:51;18.20;76.50
32296;DHT22;18781;51.550;5.418;2022-10-17T03:42:16;18.20;76.50
32296;DHT22;18781;51.550;5.418;2022-10-17T03:44:42;18.30;76.60
32296;DHT22;18781;51.550;5.418;2022-10-17T03:47:07;18.30;76.60
32296;DHT22;18781;51.550;5.418;2022-10-17T03:49:33;18.30;76.60
32296;DHT22;18781;51.550;5.418;2022-10-17T03:51:59;18.30;76.60
32296;DHT22;18781;51.550;5.418;2022-10-17T03:54:24;18.30;76.70
32296;DHT22;18781;51.550;5.418;2022-10-17T03:56:50;18.40;76.90
32296;DHT22;18781;51.550;5.418;2022-10-17T03:59:15;18.40;76.90
32296;DHT22;18781;51.550;5.418;2022-10-17T04:01:41;18.40;76.80
32296;DHT22;18781;51.550;5.418;2022-10-17T04:04:08;18.40;76.90
32296;DHT22;18781;51.550;5.418;2022-10-17T04:06:34;18.40;76.90
32296;DHT22;18781;51.550;5.418;2022-10-17T04:08:59;18.50;76.90
32296;DHT22;18781;51.550;5.418;2022-10-17T04:11:25;18.50;76.90
32296;DHT22;18781;51.550;5.418;2022-10-17T04:13:55;18.50;76.90
32296;DHT22;18781;51.550;5.418;2022-10-17T04:16:21;18.50;77.00
32296;DHT22;18781;51.550;5.418;2022-10-17T04:18:52;18.50;76.80
32296;DHT22;18781;51.550;5.418;2022-10-17T04:21:18;18.50;76.90
32296;DHT22;18781;51.550;5.418;2022-10-17T04:23:44;18.60;76.80
32296;DHT22;18781;51.550;5.418;2022-10-17T04:26:10;18.60;76.80
32296;DHT22;18781;51.550;5.418;2022-10-17T04:28:35;18.60;76.80
32296;DHT22;18781;51.550;5.418;2022-10-17T04:31:06;18.60;76.80
32296;DHT22;18781;51.550;5.418;2022-10-17T04:33:32;18.60;76.90
32296;DHT22;18781;51.550;5.418;2022-10-17T04:35:59;18.60;76.80
32296;DHT22;18781;51.550;5.418;2022-10-17T04:38:25;18.60;76.80
32296;DHT22;18781;51.550;5.418;2022-10-17T04:40:52;18.60;76.70
32296;DHT22;18781;51.550;5.418;2022-10-17T04:43:17;18.70;76.70
32296;DHT22;18781;51.550;5.418;2022-10-17T04:45:43;18.70;76.70
32296;DHT22;18781;51.550;5.418;2022-10-17T04:48:09;18.70;76.60
32296;DHT22;18781;51.550;5.418;2022-10-17T04:50:34;18.70;76.60
32296;DHT22;18781;51.550;5.418;2022-10-17T04:53:00;18.70;76.60
32296;DHT22;18781;51.550;5.418;2022-10-17T04:55:25;18.70;76.60
32296;DHT22;18781;51.550;5.418;2022-10-17T04:57:51;18.70;76.50
32296;DHT22;18781;51.550;5.418;2022-10-17T05:00:17;18.70;76.60
32296;DHT22;18781;51.550;5.418;2022-10-17T05:02:42;18.70;76.50
32296;DHT22;18781;51.550;5.418;2022-10-17T05:05:08;18.70;76.50
32296;DHT22;18781;51.550;5.418;2022-10-17T05:07:34;18.70;76.50
32296;DHT22;18781;51.550;5.418;2022-10-17T05:09:59;18.70;77.20
32296;DHT22;18781;51.550;5.418;2022-10-17T05:12:25;18.70;76.60
32296;DHT22;18781;51.550;5.418;2022-10-17T05:14:50;18.70;76.60
32296;DHT22;18781;51.550;5.418;2022-10-17T05:17:16;18.70;76.60
32296;DHT22;18781;51.550;5.418;2022-10-17T05:19:42;18.70;76.60
32296;DHT22;18781;51.550;5.418;2022-10-17T05:22:07;18.70;76.60
32296;DHT22;18781;51.550;5.418;2022-10-17T05:24:33;18.70;76.60
32296;DHT22;18781;51.550;5.418;2022-10-17T05:26:59;18.70;76.50
32296;DHT22;18781;51.550;5.418;2022-10-17T05:29:24;18.70;76.70
32296;DHT22;18781;51.550;5.418;2022-10-17T05:31:50;18.70;76.70
32296;DHT22;18781;51.550;5.418;2022-10-17T05:34:16;18.70;76.70
32296;DHT22;18781;51.550;5.418;2022-10-17T05:36:41;18.70;76.80
32296;DHT22;18781;51.550;5.418;2022-10-17T05:39:07;18.70;76.80
32296;DHT22;18781;51.550;5.418;2022-10-17T05:41:33;18.80;76.90
32296;DHT22;18781;51.550;5.418;2022-10-17T05:43:59;18.70;76.80
32296;DHT22;18781;51.550;5.418;2022-10-17T05:46:24;18.80;77.00
32296;DHT22;18781;51.550;5.418;2022-10-17T05:48:50;18.80;77.00
32296;DHT22;18781;51.550;5.418;2022-10-17T05:51:16;18.80;77.10
32296;DHT22;18781;51.550;5.418;2022-10-17T05:53:41;18.80;77.10
32296;DHT22;18781;51.550;5.418;2022-10-17T05:56:09;18.80;77.10
32296;DHT22;18781;51.550;5.418;2022-10-17T05:58:35;18.80;77.10
32296;DHT22;18781;51.550;5.418;2022-10-17T06:01:03;18.80;77.10
32296;DHT22;18781;51.550;5.418;2022-10-17T06:03:29;18.90;77.20
32296;DHT22;18781;51.550;5.418;2022-10-17T06:05:55;18.80;77.10
32296;DHT22;18781;51.550;5.418;2022-10-17T06:08:21;18.90;77.20
32296;DHT22;18781;51.550;5.418;2022-10-17T06:10:49;18.90;77.20
32296;DHT22;18781;51.550;5.418;2022-10-17T06:13:16;18.90;77.20
32296;DHT22;18781;51.550;5.418;2022-10-17T06:15:42;18.90;77.10
32296;DHT22;18781;51.550;5.418;2022-10-17T06:18:08;19.00;77.10
32296;DHT22;18781;51.550;5.418;2022-10-17T06:20:33;19.00;77.00
32296;DHT22;18781;51.550;5.418;2022-10-17T06:22:59;19.00;77.10
32296;DHT22;18781;51.550;5.418;2022-10-17T06:25:25;19.00;77.10
32296;DHT22;18781;51.550;5.418;2022-10-17T06:27:50;19.00;77.10
32296;DHT22;18781;51.550;5.418;2022-10-17T06:30:16;19.00;77.00
32296;DHT22;18781;51.550;5.418;2022-10-17T06:32:42;19.00;77.00
32296;DHT22;18781;51.550;5.418;2022-10-17T06:35:07;19.00;77.00
32296;DHT22;18781;51.550;5.418;2022-10-17T06:37:33;19.10;77.10
32296;DHT22;18781;51.550;5.418;2022-10-17T06:39:59;19.10;77.10
32296;DHT22;18781;51.550;5.418;2022-10-17T06:42:25;19.10;77.10
32296;DHT22;18781;51.550;5.418;2022-10-17T06:44:50;19.10;77.00
32296;DHT22;18781;51.550;5.418;2022-10-17T06:47:16;19.10;77.00
32296;DHT22;18781;51.550;5.418;2022-10-17T06:49:41;19.20;77.10
32296;DHT22;18781;51.550;5.418;2022-10-17T06:52:08;19.20;77.10
32296;DHT22;18781;51.550;5.418;2022-10-17T06:54:34;19.10;77.00
32296;DHT22;18781;51.550;5.418;2022-10-17T06:56:59;19.20;77.10
32296;DHT22;18781;51.550;5.418;2022-10-17T06:59:25;19.20;77.00
32296;DHT22;18781;51.550;5.418;2022-10-17T07:01:50;19.20;77.00
32296;DHT22;18781;51.550;5.418;2022-10-17T07:04:16;19.20;77.00
32296;DHT22;18781;51.550;5.418;2022-10-17T07:06:42;19.30;77.10
32296;DHT22;18781;51.550;5.418;2022-10-17T07:09:08;19.30;77.10
32296;DHT22;18781;51.550;5.418;2022-10-17T07:11:34;19.30;77.10
32296;DHT22;18781;51.550;5.418;2022-10-17T07:14:00;19.30;77.00
32296;DHT22;18781;51.550;5.418;2022-10-17T07:16:25;19.30;77.00
32296;DHT22;18781;51.550;5.418;2022-10-17T07:18:52;19.40;77.10
32296;DHT22;18781;51.550;5.418;2022-10-17T07:21:18;19.40;77.00
32296;DHT22;18781;51.550;5.418;2022-10-17T07:23:44;19.40;77.00
32296;DHT22;18781;51.550;5.418;2022-10-17T07:26:13;19.50;77.00
32296;DHT22;18781;51.550;5.418;2022-10-17T07:28:40;19.50;76.90
32296;DHT22;18781;51.550;5.418;2022-10-17T07:31:12;19.50;76.80
32296;DHT22;18781;51.550;5.418;2022-10-17T07:33:39;19.50;76.80
32296;DHT22;18781;51.550;5.418;2022-10-17T07:36:05;19.50;76.70
32296;DHT22;18781;51.550;5.418;2022-10-17T07:38:30;19.50;76.60
32296;DHT22;18781;51.550;5.418;2022-10-17T07:40:58;19.60;76.50
32296;DHT22;18781;51.550;5.418;2022-10-17T07:43:25;19.60;76.50
32296;DHT22;18781;51.550;5.418;2022-10-17T07:45:51;19.60;76.30
32296;DHT22;18781;51.550;5.418;2022-10-17T07:48:17;19.60;76.30
32296;DHT22;18781;51.550;5.418;2022-10-17T07:50:42;19.60;76.30
32296;DHT22;18781;51.550;5.418;2022-10-17T07:53:08;19.60;76.30
32296;DHT22;18781;51.550;5.418;2022-10-17T07:55:36;19.70;76.40
32296;DHT22;18781;51.550;5.418;2022-10-17T07:58:02;19.70;76.50
32296;DHT22;18781;51.550;5.418;2022-10-17T08:00:27;19.70;76.40
32296;DHT22;18781;51.550;5.418;2022-10-17T08:02:53;19.70;76.50
32296;DHT22;18781;51.550;5.418;2022-10-17T08:05:19;19.70;76.70
32296;DHT22;18781;51.550;5.418;2022-10-17T08:07:44;19.70;76.60
32296;DHT22;18781;51.550;5.418;2022-10-17T08:10:14;19.70;76.70
32296;DHT22;18781;51.550;5.418;2022-10-17T08:12:39;19.70;76.90
32296;DHT22;18781;51.550;5.418;2022-10-17T08:15:07;19.70;76.90
32296;DHT22;18781;51.550;5.418;2022-10-17T08:17:37;19.70;77.10
32296;DHT22;18781;51.550;5.418;2022-10-17T08:20:04;19.70;77.20
32296;DHT22;18781;51.550;5.418;2022-10-17T08:22:31;19.70;77.20
32296;DHT22;18781;51.550;5.418;2022-10-17T08:24:56;19.70;77.20
32296;DHT22;18781;51.550;5.418;2022-10-17T08:27:22;19.70;77.20
32296;DHT22;18781;51.550;5.418;2022-10-17T08:29:50;19.70;77.20
32296;DHT22;18781;51.550;5.418;2022-10-17T08:32:20;19.70;77.30
32296;DHT22;18781;51.550;5.418;2022-10-17T08:34:46;19.70;77.40
32296;DHT22;18781;51.550;5.418;2022-10-17T08:37:12;19.70;77.30
32296;DHT22;18781;51.550;5.418;2022-10-17T08:39:39;19.70;77.40
32296;DHT22;18781;51.550;5.418;2022-10-17T08:45:20;19.70;77.70
32296;DHT22;18781;51.550;5.418;2022-10-17T08:47:51;19.70;77.70
32296;DHT22;18781;51.550;5.418;2022-10-17T08:55:46;19.70;78.30
32296;DHT22;18781;51.550;5.418;2022-10-17T08:58:27;19.70;77.50
32296;DHT22;18781;51.550;5.418;2022-10-17T09:09:26;19.70;78.00
32296;DHT22;18781;51.550;5.418;2022-10-17T09:12:04;19.80;78.00
32296;DHT22;18781;51.550;5.418;2022-10-17T09:17:21;19.80;78.00
32296;DHT22;18781;51.550;5.418;2022-10-17T09:20:13;19.80;77.70
32296;DHT22;18781;51.550;5.418;2022-10-17T09:22:46;19.80;78.00
32296;DHT22;18781;51.550;5.418;2022-10-17T09:25:16;19.80;77.80
32296;DHT22;18781;51.550;5.418;2022-10-17T09:27:47;19.80;77.70
32296;DHT22;18781;51.550;5.418;2022-10-17T09:32:45;19.80;77.70
32296;DHT22;18781;51.550;5.418;2022-10-17T09:35:15;19.80;77.70
32296;DHT22;18781;51.550;5.418;2022-10-17T09:37:41;19.80;77.90
32296;DHT22;18781;51.550;5.418;2022-10-17T09:40:15;19.80;77.80
32296;DHT22;18781;51.550;5.418;2022-10-17T09:42:44;19.80;78.10
32296;DHT22;18781;51.550;5.418;2022-10-17T09:45:15;19.80;78.00
32296;DHT22;18781;51.550;5.418;2022-10-17T09:47:47;19.80;78.00
32296;DHT22;18781;51.550;5.418;2022-10-17T09:52:47;19.80;78.10
32296;DHT22;18781;51.550;5.418;2022-10-17T09:55:30;19.90;77.90
32296;DHT22;18781;51.550;5.418;2022-10-17T09:58:03;19.80;77.90
32296;DHT22;18781;51.550;5.418;2022-10-17T10:00:30;19.90;78.00
32296;DHT22;18781;51.550;5.418;2022-10-17T10:03:19;19.90;78.10
32296;DHT22;18781;51.550;5.418;2022-10-17T10:08:27;19.90;78.20
32296;DHT22;18781;51.550;5.418;2022-10-17T10:10:57;19.90;78.10
32296;DHT22;18781;51.550;5.418;2022-10-17T10:13:26;19.90;78.30
32296;DHT22;18781;51.550;5.418;2022-10-17T10:15:52;19.90;78.20
32296;DHT22;18781;51.550;5.418;2022-10-17T10:23:30;20.00;78.60
32296;DHT22;18781;51.550;5.418;2022-10-17T10:25:57;20.00;78.20
32296;DHT22;18781;51.550;5.418;2022-10-17T10:28:32;20.10;78.40
32296;DHT22;18781;51.550;5.418;2022-10-17T10:31:04;20.00;78.60
32296;DHT22;18781;51.550;5.418;2022-10-17T10:33:33;20.10;78.60
32296;DHT22;18781;51.550;5.418;2022-10-17T10:36:01;20.10;78.60
32296;DHT22;18781;51.550;5.418;2022-10-17T10:38:29;20.10;78.40
32296;DHT22;18781;51.550;5.418;2022-10-17T10:41:06;20.10;78.40
32296;DHT22;18781;51.550;5.418;2022-10-17T10:43:46;20.20;78.40
32296;DHT22;18781;51.550;5.418;2022-10-17T10:46:20;20.20;78.50
32296;DHT22;18781;51.550;5.418;2022-10-17T10:49:00;20.20;78.30
32296;DHT22;18781;51.550;5.418;2022-10-17T10:51:38;20.20;78.40
32296;DHT22;18781;51.550;5.418;2022-10-17T10:54:27;20.30;78.40
32296;DHT22;18781;51.550;5.418;2022-10-17T10:56:57;20.30;78.40
32296;DHT22;18781;51.550;5.418;2022-10-17T10:59:28;20.30;78.00
32296;DHT22;18781;51.550;5.418;2022-10-17T11:04:54;20.30;78.00
32296;DHT22;18781;51.550;5.418;2022-10-17T11:07:34;20.30;78.00
32296;DHT22;18781;51.550;5.418;2022-10-17T11:10:18;20.30;77.90
32296;DHT22;18781;51.550;5.418;2022-10-17T11:12:49;20.30;78.00
32296;DHT22;18781;51.550;5.418;2022-10-17T11:18:17;20.30;77.90
32296;DHT22;18781;51.550;5.418;2022-10-17T11:20:52;20.30;78.00
32296;DHT22;18781;51.550;5.418;2022-10-17T11:23:47;20.30;78.00
32296;DHT22;18781;51.550;5.418;2022-10-17T11:26:27;20.30;77.90
32296;DHT22;18781;51.550;5.418;2022-10-17T11:28:54;20.30;77.90
32296;DHT22;18781;51.550;5.418;2022-10-17T11:31:22;20.40;77.80
32296;DHT22;18781;51.550;5.418;2022-10-17T11:33:58;20.40;77.80
32296;DHT22;18781;51.550;5.418;2022-10-17T11:36:29;20.40;77.90
32296;DHT22;18781;51.550;5.418;2022-10-17T11:39:03;20.40;77.90
32296;DHT22;18781;51.550;5.418;2022-10-17T11:42:01;20.40;77.90
32296;DHT22;18781;51.550;5.418;2022-10-17T11:44:35;20.40;77.90
32296;DHT22;18781;51.550;5.418;2022-10-17T11:47:22;20.40;77.80
32296;DHT22;18781;51.550;5.418;2022-10-17T11:50:18;20.40;77.90
32296;DHT22;18781;51.550;5.418;2022-10-17T11:52:50;20.40;78.00
32296;DHT22;18781;51.550;5.418;2022-10-17T11:55:21;20.40;77.90
32296;DHT22;18781;51.550;5.418;2022-10-17T12:08:38;20.50;77.80
32296;DHT22;18781;51.550;5.418;2022-10-17T12:14:41;20.50;78.10
32296;DHT22;18781;51.550;5.418;2022-10-17T12:17:33;20.50;78.20
32296;DHT22;18781;51.550;5.418;2022-10-17T12:25:26;20.60;78.00
32296;DHT22;18781;51.550;5.418;2022-10-17T12:30:35;20.60;77.90
32296;DHT22;18781;51.550;5.418;2022-10-17T12:33:29;20.60;77.80
32296;DHT22;18781;51.550;5.418;2022-10-17T12:57:53;20.80;78.50
32296;DHT22;18781;51.550;5.418;2022-10-17T13:00:36;20.80;78.40
32296;DHT22;18781;51.550;5.418;2022-10-17T13:05:41;20.90;78.20
32296;DHT22;18781;51.550;5.418;2022-10-17T13:08:15;20.90;78.00
32296;DHT22;18781;51.550;5.418;2022-10-17T13:10:44;20.90;77.90
32296;DHT22;18781;51.550;5.418;2022-10-17T13:15:36;20.90;77.70
32296;DHT22;18781;51.550;5.418;2022-10-17T13:18:03;20.90;77.50
32296;DHT22;18781;51.550;5.418;2022-10-17T13:20:30;20.90;77.50
32296;DHT22;18781;51.550;5.418;2022-10-17T13:22:56;20.90;77.40
32296;DHT22;18781;51.550;5.418;2022-10-17T13:25:23;20.90;77.40
32296;DHT22;18781;51.550;5.418;2022-10-17T13:27:50;20.90;77.30
32296;DHT22;18781;51.550;5.418;2022-10-17T13:32:46;20.90;77.20
32296;DHT22;18781;51.550;5.418;2022-10-17T13:35:14;20.90;77.30
32296;DHT22;18781;51.550;5.418;2022-10-17T13:37:43;20.90;77.40
32296;DHT22;18781;51.550;5.418;2022-10-17T13:40:18;20.90;77.40
32296;DHT22;18781;51.550;5.418;2022-10-17T13:42:45;20.90;77.40
32296;DHT22;18781;51.550;5.418;2022-10-17T13:45:17;20.90;77.10
32296;DHT22;18781;51.550;5.418;2022-10-17T13:47:44;20.90;77.10
32296;DHT22;18781;51.550;5.418;2022-10-17T13:50:20;20.90;77.20
32296;DHT22;18781;51.550;5.418;2022-10-17T13:52:46;20.90;77.20
32296;DHT22;18781;51.550;5.418;2022-10-17T13:55:15;20.90;77.20
32296;DHT22;18781;51.550;5.418;2022-10-17T13:57:41;20.90;77.30
32296;DHT22;18781;51.550;5.418;2022-10-17T14:00:16;20.90;77.30
32296;DHT22;18781;51.550;5.418;2022-10-17T14:02:42;20.90;77.40
32296;DHT22;18781;51.550;5.418;2022-10-17T14:05:14;20.90;77.40
32296;DHT22;18781;51.550;5.418;2022-10-17T14:10:21;20.90;77.50
32296;DHT22;18781;51.550;5.418;2022-10-17T14:12:49;20.90;77.40
32296;DHT22;18781;51.550;5.418;2022-10-17T14:15:15;20.90;77.30
32296;DHT22;18781;51.550;5.418;2022-10-17T14:17:42;20.90;77.30
32296;DHT22;18781;51.550;5.418;2022-10-17T14:20:18;20.90;77.30
32296;DHT22;18781;51.550;5.418;2022-10-17T14:22:44;20.90;77.40
32296;DHT22;18781;51.550;5.418;2022-10-17T14:25:45;21.00;77.30
32296;DHT22;18781;51.550;5.418;2022-10-17T14:30:38;21.00;77.10
32296;DHT22;18781;51.550;5.418;2022-10-17T14:33:06;21.00;77.00
32296;DHT22;18781;51.550;5.418;2022-10-17T14:35:33;21.00;77.00
32296;DHT22;18781;51.550;5.418;2022-10-17T14:38:04;21.00;77.20
32296;DHT22;18781;51.550;5.418;2022-10-17T14:40:31;21.00;77.10
32296;DHT22;18781;51.550;5.418;2022-10-17T14:43:01;21.00;77.10
32296;DHT22;18781;51.550;5.418;2022-10-17T14:48:01;21.00;77.10
32296;DHT22;18781;51.550;5.418;2022-10-17T14:50:29;21.00;77.10
32296;DHT22;18781;51.550;5.418;2022-10-17T14:55:27;21.00;77.00
32296;DHT22;18781;51.550;5.418;2022-10-17T14:57:53;21.00;76.90
32296;DHT22;18781;51.550;5.418;2022-10-17T15:00:20;21.00;77.00
32296;DHT22;18781;51.550;5.418;2022-10-17T15:02:47;21.00;76.90
32296;DHT22;18781;51.550;5.418;2022-10-17T15:05:14;21.10;76.90
32296;DHT22;18781;51.550;5.418;2022-10-17T15:07:41;21.10;76.90
32296;DHT22;18781;51.550;5.418;2022-10-17T15:12:45;21.10;76.90
32296;DHT22;18781;51.550;5.418;2022-10-17T15:15:10;21.10;76.90
32296;DHT22;18781;51.550;5.418;2022-10-17T15:17:36;21.10;76.90
32296;DHT22;18781;51.550;5.418;2022-10-17T15:20:01;21.10;76.80
32296;DHT22;18781;51.550;5.418;2022-10-17T15:22:27;21.10;76.80
32296;DHT22;18781;51.550;5.418;2022-10-17T15:24:53;21.10;76.80
32296;DHT22;18781;51.550;5.418;2022-10-17T15:27:21;21.10;76.60
32296;DHT22;18781;51.550;5.418;2022-10-17T15:29:47;21.10;76.60
32296;DHT22;18781;51.550;5.418;2022-10-17T15:32:13;21.10;76.70
32296;DHT22;18781;51.550;5.418;2022-10-17T15:34:39;21.10;76.50
32296;DHT22;18781;51.550;5.418;2022-10-17T15:37:06;21.20;76.50
32296;DHT22;18781;51.550;5.418;2022-10-17T15:39:38;21.10;76.40
32296;DHT22;18781;51.550;5.418;2022-10-17T15:42:08;21.20;76.50
32296;DHT22;18781;51.550;5.418;2022-10-17T15:44:35;21.20;76.40
32296;DHT22;18781;51.550;5.418;2022-10-17T15:47:01;21.10;76.40
32296;DHT22;18781;51.550;5.418;2022-10-17T15:49:27;21.10;76.30
32296;DHT22;18781;51.550;5.418;2022-10-17T15:51:52;21.10;76.20
32296;DHT22;18781;51.550;5.418;2022-10-17T15:54:18;21.10;76.20
32296;DHT22;18781;51.550;5.418;2022-10-17T15:56:48;21.10;76.10
32296;DHT22;18781;51.550;5.418;2022-10-17T15:59:20;21.10;76.10
32296;DHT22;18781;51.550;5.418;2022-10-17T16:01:47;21.10;76.10
32296;DHT22;18781;51.550;5.418;2022-10-17T16:04:13;21.10;76.20
32296;DHT22;18781;51.550;5.418;2022-10-17T16:06:40;21.10;76.20
32296;DHT22;18781;51.550;5.418;2022-10-17T16:09:07;21.00;76.10
32296;DHT22;18781;51.550;5.418;2022-10-17T16:11:34;21.00;76.10
32296;DHT22;18781;51.550;5.418;2022-10-17T16:14:02;21.00;76.00
32296;DHT22;18781;51.550;5.418;2022-10-17T16:16:28;21.00;76.00
32296;DHT22;18781;51.550;5.418;2022-10-17T16:18:54;21.00;76.00
32296;DHT22;18781;51.550;5.418;2022-10-17T16:21:23;21.00;76.00
32296;DHT22;18781;51.550;5.418;2022-10-17T16:23:50;21.00;76.00
32296;DHT22;18781;51.550;5.418;2022-10-17T16:26:15;20.90;76.00
32296;DHT22;18781;51.550;5.418;2022-10-17T16:28:42;20.90;76.00
32296;DHT22;18781;51.550;5.418;2022-10-17T16:31:27;20.90;76.00
32296;DHT22;18781;51.550;5.418;2022-10-17T16:33:56;20.90;76.00
32296;DHT22;18781;51.550;5.418;2022-10-17T16:36:22;20.90;76.00
32296;DHT22;18781;51.550;5.418;2022-10-17T16:38:47;20.80;75.90
32296;DHT22;18781;51.550;5.418;2022-10-17T16:43:47;20.80;75.90
32296;DHT22;18781;51.550;5.418;2022-10-17T16:46:12;20.80;76.00
32296;DHT22;18781;51.550;5.418;2022-10-17T16:48:38;20.80;76.00
32296;DHT22;18781;51.550;5.418;2022-10-17T16:51:04;20.80;76.00
32296;DHT22;18781;51.550;5.418;2022-10-17T16:53:29;20.70;76.00
32296;DHT22;18781;51.550;5.418;2022-10-17T16:55:59;20.70;76.00
32296;DHT22;18781;51.550;5.418;2022-10-17T16:58:26;20.70;76.00
32296;DHT22;18781;51.550;5.418;2022-10-17T17:00:55;20.70;76.00
32296;DHT22;18781;51.550;5.418;2022-10-17T17:03:24;20.70;76.00
32296;DHT22;18781;51.550;5.418;2022-10-17T17:05:50;20.60;76.00
32296;DHT22;18781;51.550;5.418;2022-10-17T17:08:16;20.60;75.90
32296;DHT22;18781;51.550;5.418;2022-10-17T17:10:48;20.60;75.90
32296;DHT22;18781;51.550;5.418;2022-10-17T17:13:15;20.60;75.90
32296;DHT22;18781;51.550;5.418;2022-10-17T17:15:41;20.50;75.90
32296;DHT22;18781;51.550;5.418;2022-10-17T17:18:06;20.50;75.90
32296;DHT22;18781;51.550;5.418;2022-10-17T17:20:33;20.50;76.00
32296;DHT22;18781;51.550;5.418;2022-10-17T17:22:58;20.40;76.00
32296;DHT22;18781;51.550;5.418;2022-10-17T17:25:24;20.40;76.00
32296;DHT22;18781;51.550;5.418;2022-10-17T17:27:49;20.40;76.00
32296;DHT22;18781;51.550;5.418;2022-10-17T17:30:15;20.40;76.10
32296;DHT22;18781;51.550;5.418;2022-10-17T17:32:40;20.40;76.10
32296;DHT22;18781;51.550;5.418;2022-10-17T17:35:06;20.40;76.10
32296;DHT22;18781;51.550;5.418;2022-10-17T17:37:32;20.30;76.10
32296;DHT22;18781;51.550;5.418;2022-10-17T17:39:58;20.30;76.10
32296;DHT22;18781;51.550;5.418;2022-10-17T17:42:24;20.30;76.10
32296;DHT22;18781;51.550;5.418;2022-10-17T17:44:49;20.30;76.20
32296;DHT22;18781;51.550;5.418;2022-10-17T17:47:15;20.20;76.20
32296;DHT22;18781;51.550;5.418;2022-10-17T17:49:40;20.20;76.30
32296;DHT22;18781;51.550;5.418;2022-10-17T17:52:06;20.20;76.20
32296;DHT22;18781;51.550;5.418;2022-10-17T17:54:31;20.20;76.30
32296;DHT22;18781;51.550;5.418;2022-10-17T17:56:57;20.10;76.30
32296;DHT22;18781;51.550;5.418;2022-10-17T17:59:23;20.10;76.30